Météo Nord-Pas-de-Calais   La météo au plus près de chez vous

Station météorologique

Observations météo à Montredon-Labessonnie (81182)

81182004 566 m Dernier relevé à 11:42
24.4°C
Humidité 51 % Vent 7.9 km/h

Journée consultée

Mercredi 2 Septembre 2026

Synthèse de la journée

Périodes de référence en UTC

Température maximale

24.4°C

à 11:36

06h 06h

Température minimale

16.7°C

à 07:12

18h 18h

Rafale maximale

23 km/h

à 11:06

00h 00h

Précipitations

0 mm

Cumul quotidien

06h 06h

Graphiques de la journée

Heure locale Réduire

Données détaillées

Relevés météo

Pas de 6 minutes Afficher les relevés infra-horaires
Relevés météo détaillés à Montredon-Labessonnie pour le Mercredi 2 Septembre 2026
Heure Température °C Point de rosée °C Humidité % Vent moyen (raf.), km/h Précipitations mm
11:42 24.4 °C 11.4 °C 44 % 10 km/h (19 km/h) 0 mm0 mm
11:36 24.4 °C 11.4 °C 44 % 9 km/h (17 km/h) 0 mm0 mm
11:30 24.3 °C 10.6 °C 42 % 9 km/h (18 km/h) 0 mm0 mm
11:24 24.3 °C 10.6 °C 42 % 9 km/h (18 km/h) 0 mm0 mm
11:18 24.3 °C 9.8 °C 40 % 9 km/h (23 km/h) 0 mm0 mm
11:12 24.1 °C 10.7 °C 43 % 8 km/h (23 km/h) 0 mm0 mm
11:06 23.9 °C 11.6 °C 46 % 8 km/h (23 km/h) 0 mm0 mm
11:00 23.1 °C 11.5 °C 48 % 6 km/h (14 km/h) 0 mm0 mm
10:54 23 °C 11.7 °C 49 % 7 km/h (13 km/h) 0 mm0 mm
10:48 22.6 °C 11.6 °C 50 % 8 km/h (13 km/h) 0 mm0 mm
10:42 22.7 °C 12 °C 51 % 8 km/h (12 km/h) 0 mm0 mm
10:36 22.6 °C 11.9 °C 51 % 8 km/h (12 km/h) 0 mm0 mm
10:30 22.4 °C 11.8 °C 51 % 8 km/h (14 km/h) 0 mm0 mm
10:24 22.3 °C 11.7 °C 51 % 8 km/h (14 km/h) 0 mm0 mm
10:18 22.1 °C 12.1 °C 53 % 7 km/h (11 km/h) 0 mm0 mm
10:12 21.8 °C 12.1 °C 54 % 7 km/h (10 km/h) 0 mm0 mm
10:06 21.5 °C 11.8 °C 54 % 8 km/h (13 km/h) 0 mm0 mm
10:00 21.5 °C 12.1 °C 55 % 8 km/h (13 km/h) 0 mm0 mm
09:54 21 °C 11.9 °C 56 % 8 km/h (12 km/h) 0 mm0 mm
09:48 21 °C 11.9 °C 56 % 6 km/h (11 km/h) 0 mm0 mm
09:42 21.3 °C 12.4 °C 57 % 5 km/h (10 km/h) 0 mm0 mm
09:36 20.9 °C 12.3 °C 58 % 5 km/h (9 km/h) 0 mm0 mm
09:30 20.8 °C 12.2 °C 58 % 5 km/h (10 km/h) 0 mm0 mm
09:24 20.5 °C 12.2 °C 59 % 5 km/h (10 km/h) 0 mm0 mm
09:18 20.3 °C 12 °C 59 % 4 km/h (9 km/h) 0 mm0 mm
09:12 20.3 °C 12.3 °C 60 % 5 km/h (8 km/h) 0 mm0 mm
09:06 20 °C 12 °C 60 % 5 km/h (8 km/h) 0 mm0 mm
09:00 19.7 °C 12 °C 61 % 5 km/h (8 km/h) 0 mm0 mm
08:54 19.4 °C 11.9 °C 62 % 5 km/h (8 km/h) 0 mm0 mm
08:48 18.9 °C 12.2 °C 65 % 4 km/h (6 km/h) 0 mm0 mm
08:42 18.4 °C 11.9 °C 66 % 4 km/h (5 km/h) 0 mm0 mm
08:36 18 °C 11.8 °C 67 % 4 km/h (6 km/h) 0 mm0 mm
08:30 17.8 °C 11.8 °C 68 % 4 km/h (6 km/h) 0 mm0 mm
08:24 17.8 °C 11.8 °C 68 % 4 km/h (7 km/h) 0 mm0 mm
08:18 17.8 °C 11.6 °C 67 % 6 km/h (9 km/h) 0 mm0 mm
08:12 17.8 °C 11.6 °C 67 % 8 km/h (10 km/h) 0 mm0 mm
08:06 17.7 °C 11.5 °C 67 % 9 km/h (11 km/h) 0 mm0 mm
08:00 17.6 °C 11.6 °C 68 % 9 km/h (11 km/h) 0 mm0 mm
07:54 17.6 °C 11.4 °C 67 % 9 km/h (12 km/h) 0 mm0 mm
07:48 17.6 °C 11.4 °C 67 % 9 km/h (12 km/h) 0 mm0 mm
07:42 17.4 °C 11 °C 66 % 8 km/h (11 km/h) 0 mm0 mm
07:36 17.6 °C 10.7 °C 64 % 6 km/h (10 km/h) 0 mm0 mm
07:30 17.6 °C 10.5 °C 63 % 5 km/h (6 km/h) 0 mm0 mm
07:24 17.6 °C 10.7 °C 64 % 5 km/h (7 km/h) 0 mm0 mm
07:18 17.1 °C 10.7 °C 66 % 5 km/h (7 km/h) 0 mm0 mm
07:12 16.7 °C 10.5 °C 67 % 4 km/h (6 km/h) 0 mm0 mm
07:06 16.9 °C 10.5 °C 66 % 5 km/h (7 km/h) 0 mm0 mm
07:00 17.2 °C 10.3 °C 64 % 4 km/h (7 km/h) 0 mm0 mm
06:54 18.2 °C 10.1 °C 59 % 4 km/h (8 km/h) 0 mm0 mm
06:48 18.5 °C 10.3 °C 59 % 7 km/h (10 km/h) 0 mm0 mm
06:42 18.5 °C 10.3 °C 59 % 8 km/h (10 km/h) 0 mm0 mm
06:36 18.4 °C 10.2 °C 59 % 8 km/h (11 km/h) 0 mm0 mm
06:30 18.5 °C 10.3 °C 59 % 9 km/h (11 km/h) 0 mm0 mm
06:24 18.7 °C 10.3 °C 58 % 9 km/h (12 km/h) 0 mm0 mm
06:18 18.7 °C 10.3 °C 58 % 9 km/h (12 km/h) 0 mm0 mm
06:12 18.7 °C 10.5 °C 59 % 8 km/h (12 km/h) 0 mm0 mm
06:06 18.7 °C 10.5 °C 59 % 9 km/h (12 km/h) 0 mm0 mm
06:00 18.7 °C 10.5 °C 59 % 9 km/h (13 km/h) 0 mm0 mm
05:54 18.7 °C 10.5 °C 59 % 9 km/h (12 km/h) 0 mm0 mm
05:48 18.6 °C 10.4 °C 59 % 9 km/h (11 km/h) 0 mm0 mm
05:42 18.6 °C 10.7 °C 60 % 9 km/h (12 km/h) 0 mm0 mm
05:36 18.3 °C 10.6 °C 61 % 10 km/h (13 km/h) 0 mm0 mm
05:30 18.3 °C 10.6 °C 61 % 9 km/h (12 km/h) 0 mm0 mm
05:24 18.4 °C 10.7 °C 61 % 9 km/h (12 km/h) 0 mm0 mm
05:18 18.3 °C 10.6 °C 61 % 9 km/h (12 km/h) 0 mm0 mm
05:12 18.5 °C 10.8 °C 61 % 10 km/h (13 km/h) 0 mm0 mm
05:06 18.5 °C 10.8 °C 61 % 10 km/h (13 km/h) 0 mm0 mm
05:00 18.6 °C 10.9 °C 61 % 9 km/h (12 km/h) 0 mm0 mm
04:54 18.6 °C 10.9 °C 61 % 8 km/h (11 km/h) 0 mm0 mm
04:48 18.4 °C 11 °C 62 % 8 km/h (11 km/h) 0 mm0 mm
04:42 18.5 °C 10.8 °C 61 % 9 km/h (12 km/h) 0 mm0 mm
04:36 18.5 °C 10.8 °C 61 % 8 km/h (10 km/h) 0 mm0 mm
04:30 18.5 °C 11.1 °C 62 % 8 km/h (9 km/h) 0 mm0 mm
04:24 18.8 °C 10.9 °C 60 % 7 km/h (10 km/h) 0 mm0 mm
04:18 18.8 °C 10.9 °C 60 % 8 km/h (10 km/h) 0 mm0 mm
04:12 18.7 °C 11 °C 61 % 8 km/h (10 km/h) 0 mm0 mm
04:06 18.7 °C 11 °C 61 % 8 km/h (10 km/h) 0 mm0 mm
04:00 18.8 °C 11.1 °C 61 % 8 km/h (11 km/h) 0 mm0 mm
03:54 18.5 °C 11.1 °C 62 % 8 km/h (10 km/h) 0 mm0 mm
03:48 18.4 °C 11 °C 62 % 8 km/h (10 km/h) 0 mm0 mm
03:42 18.7 °C 11 °C 61 % 7 km/h (10 km/h) 0 mm0 mm
03:36 18.8 °C 11.1 °C 61 % 6 km/h (10 km/h) 0 mm0 mm
03:30 18.6 °C 11.2 °C 62 % 7 km/h (10 km/h) 0 mm0 mm
03:24 18.5 °C 11.1 °C 62 % 6 km/h (10 km/h) 0 mm0 mm
03:18 18.5 °C 11.1 °C 62 % 7 km/h (9 km/h) 0 mm0 mm
03:12 18.3 °C 11.1 °C 63 % 7 km/h (10 km/h) 0 mm0 mm
03:06 18.3 °C 11.1 °C 63 % 6 km/h (10 km/h) 0 mm0 mm
03:00 18.6 °C 11.2 °C 62 % 6 km/h (9 km/h) 0 mm0 mm
02:54 18.5 °C 11.1 °C 62 % 6 km/h (9 km/h) 0 mm0 mm
02:48 18 °C 11.1 °C 64 % 6 km/h (8 km/h) 0 mm0 mm
02:42 17.9 °C 11.2 °C 65 % 6 km/h (9 km/h) 0 mm0 mm
02:36 18.1 °C 11.2 °C 64 % 6 km/h (9 km/h) 0 mm0 mm
02:30 18.2 °C 11 °C 63 % 6 km/h (9 km/h) 0 mm0 mm
02:24 18.3 °C 11.1 °C 63 % 6 km/h (9 km/h) 0 mm0 mm
02:18 18.5 °C 11.1 °C 62 % 6 km/h (9 km/h) 0 mm0 mm
02:12 18.4 °C 11.2 °C 63 % 5 km/h (8 km/h) 0 mm0 mm
02:06 18.5 °C 11.1 °C 62 % 5 km/h (8 km/h) 0 mm0 mm
02:00 18.8 °C 11.1 °C 61 % 6 km/h (8 km/h) 0 mm0 mm
01:54 18.9 °C 11 °C 60 % 5 km/h (8 km/h) 0 mm0 mm
01:48 19.2 °C 11 °C 59 % 5 km/h (8 km/h) 0 mm0 mm
01:42 19.4 °C 10.9 °C 58 % 5 km/h (8 km/h) 0 mm0 mm
01:36 19.6 °C 11.1 °C 58 % 5 km/h (8 km/h) 0 mm0 mm
01:30 19.6 °C 11.1 °C 58 % 6 km/h (8 km/h) 0 mm0 mm
01:24 19.7 °C 10.9 °C 57 % 5 km/h (8 km/h) 0 mm0 mm
01:18 19.8 °C 11 °C 57 % 5 km/h (7 km/h) 0 mm0 mm
01:12 20 °C 11.2 °C 57 % 4 km/h (6 km/h) 0 mm0 mm
01:06 20 °C 11 °C 56 % 3 km/h (6 km/h) 0 mm0 mm
01:00 20.3 °C 11.2 °C 56 % 4 km/h (7 km/h) 0 mm0 mm
00:54 20.4 °C 11.1 °C 55 % 3 km/h (5 km/h) 0 mm0 mm
00:48 20.5 °C 11.1 °C 55 % 3 km/h (6 km/h) 0 mm0 mm
00:42 20.5 °C 11.1 °C 55 % 2 km/h (4 km/h) 0 mm0 mm
00:36 20.5 °C 11.4 °C 56 % 3 km/h (5 km/h) 0 mm0 mm
00:30 20.6 °C 11.2 °C 55 % 3 km/h (5 km/h) 0 mm0 mm
00:24 20.6 °C 11.5 °C 56 % 2 km/h (4 km/h) 0 mm0 mm
00:18 20.5 °C 11.1 °C 55 % 2 km/h (4 km/h) 0 mm0 mm
00:12 20.6 °C 11.2 °C 55 % 2 km/h (3 km/h) 0 mm0 mm
00:06 20.5 °C 11.7 °C 57 % 0 km/h (3 km/h) 0 mm0 mm
00:00 20.6 °C 11.2 °C 55 % 0 km/h (2 km/h) 0 mm0 mm

Données via Météo-France

Relevés météo à Montredon-Labessonnie

Cette page rassemble les observations de la station de Montredon-Labessonnie : température, humidité, vent, précipitations et pression atmosphérique. Les graphiques facilitent le suivi de la journée, tandis que le tableau donne accès aux mesures horaires et infra-horaires disponibles.

Pour replacer ces mesures dans leur contexte, consultez la climatologie de Montredon-Labessonnie ainsi que ses normales et records. Retrouvez aussi la carte des observations météo en temps réel.